Terminal Aerodrome Forecast
Issued by NWS

Home | Current Version | Previous Version | Text Only | Print | Product List | Glossary On
Versions: 1 2 3 4 5 6 7 8 9 10 11 12
000
FTUS44 KEPZ 252300
TAFLRU
TAF
KLRU 252320Z 2600/2624 10007KT P6SM BKN250
     FM260700 34005KT P6SM SCT150 BKN220
     FM262200 04005KT P6SM SCT120 BKN220=

USA.gov is the U.S. government's official web portal to all federal, state and local government web resources and services.